sensor_id;sensor_type;location;lat;lon;timestamp;temperature;humidity
41262;DHT22;29629;52.532;13.352;2022-07-23T00:02:24;20.00;99.90
41262;DHT22;29629;52.532;13.352;2022-07-23T00:04:51;19.90;99.90
41262;DHT22;29629;52.532;13.352;2022-07-23T00:07:18;19.90;99.90
41262;DHT22;29629;52.532;13.352;2022-07-23T00:09:46;19.90;99.90
41262;DHT22;29629;52.532;13.352;2022-07-23T00:12:13;19.90;99.90
41262;DHT22;29629;52.532;13.352;2022-07-23T00:14:39;19.80;99.90
41262;DHT22;29629;52.532;13.352;2022-07-23T00:17:06;19.80;99.90
41262;DHT22;29629;52.532;13.352;2022-07-23T00:19:33;19.80;99.90
41262;DHT22;29629;52.532;13.352;2022-07-23T00:22:00;19.80;99.90
41262;DHT22;29629;52.532;13.352;2022-07-23T00:24:27;20.00;99.90
41262;DHT22;29629;52.532;13.352;2022-07-23T00:26:55;19.90;99.90
41262;DHT22;29629;52.532;13.352;2022-07-23T00:29:22;19.90;99.90
41262;DHT22;29629;52.532;13.352;2022-07-23T00:31:48;19.90;99.90
41262;DHT22;29629;52.532;13.352;2022-07-23T00:34:15;19.90;99.90
41262;DHT22;29629;52.532;13.352;2022-07-23T00:36:42;19.80;99.90
41262;DHT22;29629;52.532;13.352;2022-07-23T00:39:09;19.80;99.90
41262;DHT22;29629;52.532;13.352;2022-07-23T00:41:35;19.70;99.90
41262;DHT22;29629;52.532;13.352;2022-07-23T00:44:17;19.70;99.90
41262;DHT22;29629;52.532;13.352;2022-07-23T00:46:46;19.60;99.90
41262;DHT22;29629;52.532;13.352;2022-07-23T00:49:13;19.70;99.90
41262;DHT22;29629;52.532;13.352;2022-07-23T00:51:40;19.70;99.90
41262;DHT22;29629;52.532;13.352;2022-07-23T00:54:07;19.60;99.90
41262;DHT22;29629;52.532;13.352;2022-07-23T00:56:34;19.60;99.90
41262;DHT22;29629;52.532;13.352;2022-07-23T00:59:01;19.50;99.90
41262;DHT22;29629;52.532;13.352;2022-07-23T01:01:29;19.40;99.90
41262;DHT22;29629;52.532;13.352;2022-07-23T01:03:56;19.40;99.90
41262;DHT22;29629;52.532;13.352;2022-07-23T01:06:23;19.40;99.90
41262;DHT22;29629;52.532;13.352;2022-07-23T01:08:50;19.30;99.90
41262;DHT22;29629;52.532;13.352;2022-07-23T01:11:18;19.40;99.90
41262;DHT22;29629;52.532;13.352;2022-07-23T01:13:45;19.40;99.90
41262;DHT22;29629;52.532;13.352;2022-07-23T01:16:12;19.40;99.90
41262;DHT22;29629;52.532;13.352;2022-07-23T01:18:40;19.40;99.90
41262;DHT22;29629;52.532;13.352;2022-07-23T01:21:08;19.20;99.90
41262;DHT22;29629;52.532;13.352;2022-07-23T01:23:40;19.10;99.90
41262;DHT22;29629;52.532;13.352;2022-07-23T01:26:06;19.10;99.90
41262;DHT22;29629;52.532;13.352;2022-07-23T01:28:33;19.00;99.90
41262;DHT22;29629;52.532;13.352;2022-07-23T01:31:00;19.10;99.90
41262;DHT22;29629;52.532;13.352;2022-07-23T01:33:27;19.10;99.90
41262;DHT22;29629;52.532;13.352;2022-07-23T01:35:54;19.00;99.90
41262;DHT22;29629;52.532;13.352;2022-07-23T01:38:20;19.00;99.90
41262;DHT22;29629;52.532;13.352;2022-07-23T01:40:49;19.00;99.90
41262;DHT22;29629;52.532;13.352;2022-07-23T01:43:15;19.00;99.90
41262;DHT22;29629;52.532;13.352;2022-07-23T01:45:43;19.00;99.90
41262;DHT22;29629;52.532;13.352;2022-07-23T01:48:10;19.00;99.90
41262;DHT22;29629;52.532;13.352;2022-07-23T01:50:37;18.90;99.90
41262;DHT22;29629;52.532;13.352;2022-07-23T01:53:03;18.90;99.90
41262;DHT22;29629;52.532;13.352;2022-07-23T01:55:30;18.90;99.90
41262;DHT22;29629;52.532;13.352;2022-07-23T01:57:58;18.90;99.90
41262;DHT22;29629;52.532;13.352;2022-07-23T02:00:25;18.90;99.90
41262;DHT22;29629;52.532;13.352;2022-07-23T02:02:52;18.90;99.90
41262;DHT22;29629;52.532;13.352;2022-07-23T02:05:19;18.90;99.90
41262;DHT22;29629;52.532;13.352;2022-07-23T02:07:46;19.00;99.90
41262;DHT22;29629;52.532;13.352;2022-07-23T02:10:13;18.90;99.90
41262;DHT22;29629;52.532;13.352;2022-07-23T02:12:39;18.90;99.90
41262;DHT22;29629;52.532;13.352;2022-07-23T02:15:08;18.90;99.90
41262;DHT22;29629;52.532;13.352;2022-07-23T02:17:35;18.90;99.90
41262;DHT22;29629;52.532;13.352;2022-07-23T02:20:02;18.90;99.90
41262;DHT22;29629;52.532;13.352;2022-07-23T02:22:29;18.90;99.90
41262;DHT22;29629;52.532;13.352;2022-07-23T02:24:56;18.90;99.90
41262;DHT22;29629;52.532;13.352;2022-07-23T02:27:23;18.90;99.90
41262;DHT22;29629;52.532;13.352;2022-07-23T02:29:49;18.80;99.90
41262;DHT22;29629;52.532;13.352;2022-07-23T02:32:18;18.80;99.90
41262;DHT22;29629;52.532;13.352;2022-07-23T02:34:46;18.80;99.90
41262;DHT22;29629;52.532;13.352;2022-07-23T02:37:13;18.90;99.90
41262;DHT22;29629;52.532;13.352;2022-07-23T02:39:40;18.80;99.90
41262;DHT22;29629;52.532;13.352;2022-07-23T02:42:07;18.80;99.90
41262;DHT22;29629;52.532;13.352;2022-07-23T02:44:34;18.80;99.90
41262;DHT22;29629;52.532;13.352;2022-07-23T02:47:01;18.80;99.90
41262;DHT22;29629;52.532;13.352;2022-07-23T02:49:29;18.70;99.90
41262;DHT22;29629;52.532;13.352;2022-07-23T02:51:56;18.70;99.90
41262;DHT22;29629;52.532;13.352;2022-07-23T02:54:23;18.70;99.90
41262;DHT22;29629;52.532;13.352;2022-07-23T02:56:50;18.60;99.90
41262;DHT22;29629;52.532;13.352;2022-07-23T02:59:17;18.60;99.90
41262;DHT22;29629;52.532;13.352;2022-07-23T03:01:44;18.70;99.90
41262;DHT22;29629;52.532;13.352;2022-07-23T03:04:11;18.70;99.90
41262;DHT22;29629;52.532;13.352;2022-07-23T03:06:39;18.70;99.90
41262;DHT22;29629;52.532;13.352;2022-07-23T03:09:06;18.60;99.90
41262;DHT22;29629;52.532;13.352;2022-07-23T03:11:33;18.70;99.90
41262;DHT22;29629;52.532;13.352;2022-07-23T03:13:59;18.60;99.90
41262;DHT22;29629;52.532;13.352;2022-07-23T03:16:26;18.60;99.90
41262;DHT22;29629;52.532;13.352;2022-07-23T03:18:53;18.50;99.90
41262;DHT22;29629;52.532;13.352;2022-07-23T03:21:20;18.50;99.90
41262;DHT22;29629;52.532;13.352;2022-07-23T03:23:48;18.50;99.90
41262;DHT22;29629;52.532;13.352;2022-07-23T03:26:15;18.50;99.90
41262;DHT22;29629;52.532;13.352;2022-07-23T03:28:42;18.50;99.90
41262;DHT22;29629;52.532;13.352;2022-07-23T03:31:09;18.50;99.90
41262;DHT22;29629;52.532;13.352;2022-07-23T03:33:35;18.50;99.90
41262;DHT22;29629;52.532;13.352;2022-07-23T03:36:02;18.50;99.90
41262;DHT22;29629;52.532;13.352;2022-07-23T03:38:29;18.50;99.90
41262;DHT22;29629;52.532;13.352;2022-07-23T03:40:57;18.50;99.90
41262;DHT22;29629;52.532;13.352;2022-07-23T03:43:24;18.50;99.90
41262;DHT22;29629;52.532;13.352;2022-07-23T03:45:51;18.50;99.90
41262;DHT22;29629;52.532;13.352;2022-07-23T03:48:18;18.50;99.90
41262;DHT22;29629;52.532;13.352;2022-07-23T03:50:45;18.60;99.90
41262;DHT22;29629;52.532;13.352;2022-07-23T03:53:12;18.50;99.90
41262;DHT22;29629;52.532;13.352;2022-07-23T03:55:38;18.50;99.90
41262;DHT22;29629;52.532;13.352;2022-07-23T03:58:07;18.50;99.90
41262;DHT22;29629;52.532;13.352;2022-07-23T04:00:33;18.50;99.90
41262;DHT22;29629;52.532;13.352;2022-07-23T04:03:00;18.50;99.90
41262;DHT22;29629;52.532;13.352;2022-07-23T04:05:27;18.50;99.90
41262;DHT22;29629;52.532;13.352;2022-07-23T04:07:54;18.60;99.90
41262;DHT22;29629;52.532;13.352;2022-07-23T04:10:21;18.60;99.90
41262;DHT22;29629;52.532;13.352;2022-07-23T04:12:47;18.60;99.90
41262;DHT22;29629;52.532;13.352;2022-07-23T04:15:16;18.60;99.90
41262;DHT22;29629;52.532;13.352;2022-07-23T04:17:42;18.60;99.90
41262;DHT22;29629;52.532;13.352;2022-07-23T04:20:11;18.50;99.90
41262;DHT22;29629;52.532;13.352;2022-07-23T04:22:38;18.40;99.90
41262;DHT22;29629;52.532;13.352;2022-07-23T04:25:05;18.50;99.90
41262;DHT22;29629;52.532;13.352;2022-07-23T04:27:32;18.50;99.90
41262;DHT22;29629;52.532;13.352;2022-07-23T04:29:59;18.50;99.90
41262;DHT22;29629;52.532;13.352;2022-07-23T04:32:27;18.50;99.90
41262;DHT22;29629;52.532;13.352;2022-07-23T04:34:54;18.50;99.90
41262;DHT22;29629;52.532;13.352;2022-07-23T04:37:21;18.10;99.90
41262;DHT22;29629;52.532;13.352;2022-07-23T04:39:48;17.80;99.90
41262;DHT22;29629;52.532;13.352;2022-07-23T04:42:15;17.80;99.90
41262;DHT22;29629;52.532;13.352;2022-07-23T04:44:41;17.80;99.90
41262;DHT22;29629;52.532;13.352;2022-07-23T04:47:08;17.70;99.90
41262;DHT22;29629;52.532;13.352;2022-07-23T04:49:37;17.60;99.90
41262;DHT22;29629;52.532;13.352;2022-07-23T04:52:04;17.80;99.90
41262;DHT22;29629;52.532;13.352;2022-07-23T04:54:31;17.60;99.90
41262;DHT22;29629;52.532;13.352;2022-07-23T04:56:58;17.60;99.90
41262;DHT22;29629;52.532;13.352;2022-07-23T04:59:24;17.50;99.90
41262;DHT22;29629;52.532;13.352;2022-07-23T05:01:51;17.40;99.90
41262;DHT22;29629;52.532;13.352;2022-07-23T05:04:18;17.30;99.90
41262;DHT22;29629;52.532;13.352;2022-07-23T05:06:46;17.20;99.90
41262;DHT22;29629;52.532;13.352;2022-07-23T05:09:13;17.20;99.90
41262;DHT22;29629;52.532;13.352;2022-07-23T05:11:40;17.30;99.90
41262;DHT22;29629;52.532;13.352;2022-07-23T05:14:10;17.40;99.90
41262;DHT22;29629;52.532;13.352;2022-07-23T05:16:38;17.40;99.90
41262;DHT22;29629;52.532;13.352;2022-07-23T05:19:04;17.40;99.90
41262;DHT22;29629;52.532;13.352;2022-07-23T05:21:31;17.30;99.90
41262;DHT22;29629;52.532;13.352;2022-07-23T05:23:59;17.30;99.90
41262;DHT22;29629;52.532;13.352;2022-07-23T05:26:26;17.30;99.90
41262;DHT22;29629;52.532;13.352;2022-07-23T05:28:53;17.20;99.90
41262;DHT22;29629;52.532;13.352;2022-07-23T05:31:20;17.20;99.90
41262;DHT22;29629;52.532;13.352;2022-07-23T05:33:47;17.20;99.90
41262;DHT22;29629;52.532;13.352;2022-07-23T05:36:14;17.30;99.90
41262;DHT22;29629;52.532;13.352;2022-07-23T05:38:41;17.20;99.90
41262;DHT22;29629;52.532;13.352;2022-07-23T05:41:09;17.20;99.90
41262;DHT22;29629;52.532;13.352;2022-07-23T05:43:36;17.20;99.90
41262;DHT22;29629;52.532;13.352;2022-07-23T05:46:02;17.20;99.90
41262;DHT22;29629;52.532;13.352;2022-07-23T05:50:58;17.30;99.90
41262;DHT22;29629;52.532;13.352;2022-07-23T05:53:26;17.30;99.90
41262;DHT22;29629;52.532;13.352;2022-07-23T05:55:53;17.00;99.90
41262;DHT22;29629;52.532;13.352;2022-07-23T05:58:21;17.00;99.90
41262;DHT22;29629;52.532;13.352;2022-07-23T06:00:48;16.90;99.90
41262;DHT22;29629;52.532;13.352;2022-07-23T06:03:15;17.00;99.90
41262;DHT22;29629;52.532;13.352;2022-07-23T06:05:41;17.00;99.90
41262;DHT22;29629;52.532;13.352;2022-07-23T06:08:08;17.00;99.90
41262;DHT22;29629;52.532;13.352;2022-07-23T06:10:35;16.90;99.90
41262;DHT22;29629;52.532;13.352;2022-07-23T06:13:02;17.00;99.90
41262;DHT22;29629;52.532;13.352;2022-07-23T06:15:30;16.90;99.90
41262;DHT22;29629;52.532;13.352;2022-07-23T06:17:57;16.90;99.90
41262;DHT22;29629;52.532;13.352;2022-07-23T06:20:24;16.90;99.90
41262;DHT22;29629;52.532;13.352;2022-07-23T06:22:50;16.90;99.90
41262;DHT22;29629;52.532;13.352;2022-07-23T06:25:17;17.00;99.90
41262;DHT22;29629;52.532;13.352;2022-07-23T06:27:45;17.00;99.90
41262;DHT22;29629;52.532;13.352;2022-07-23T06:30:13;17.10;99.90
41262;DHT22;29629;52.532;13.352;2022-07-23T06:32:42;17.20;99.90
41262;DHT22;29629;52.532;13.352;2022-07-23T06:35:09;17.10;99.90
41262;DHT22;29629;52.532;13.352;2022-07-23T06:37:36;17.20;99.90
41262;DHT22;29629;52.532;13.352;2022-07-23T06:40:03;17.10;99.90
41262;DHT22;29629;52.532;13.352;2022-07-23T06:42:30;17.10;99.90
41262;DHT22;29629;52.532;13.352;2022-07-23T06:44:57;17.20;99.90
41262;DHT22;29629;52.532;13.352;2022-07-23T06:47:24;17.20;99.90
41262;DHT22;29629;52.532;13.352;2022-07-23T06:49:52;17.30;99.90
41262;DHT22;29629;52.532;13.352;2022-07-23T06:52:19;17.30;99.90
41262;DHT22;29629;52.532;13.352;2022-07-23T06:54:46;17.40;99.90
41262;DHT22;29629;52.532;13.352;2022-07-23T06:57:13;17.50;99.90
41262;DHT22;29629;52.532;13.352;2022-07-23T06:59:39;17.50;99.90
41262;DHT22;29629;52.532;13.352;2022-07-23T07:02:07;17.50;99.90
41262;DHT22;29629;52.532;13.352;2022-07-23T07:04:34;17.60;99.90
41262;DHT22;29629;52.532;13.352;2022-07-23T07:07:02;17.50;99.90
41262;DHT22;29629;52.532;13.352;2022-07-23T07:09:29;17.50;99.90
41262;DHT22;29629;52.532;13.352;2022-07-23T07:11:56;17.50;99.90
41262;DHT22;29629;52.532;13.352;2022-07-23T07:14:23;17.50;99.90
41262;DHT22;29629;52.532;13.352;2022-07-23T07:16:50;17.70;99.90
41262;DHT22;29629;52.532;13.352;2022-07-23T07:19:16;17.70;99.90
41262;DHT22;29629;52.532;13.352;2022-07-23T07:21:43;17.90;99.90
41262;DHT22;29629;52.532;13.352;2022-07-23T07:24:11;18.00;99.90
41262;DHT22;29629;52.532;13.352;2022-07-23T07:26:38;18.20;99.90
41262;DHT22;29629;52.532;13.352;2022-07-23T07:29:05;18.20;99.90
41262;DHT22;29629;52.532;13.352;2022-07-23T07:31:32;18.30;99.90
41262;DHT22;29629;52.532;13.352;2022-07-23T07:33:59;18.30;99.90
41262;DHT22;29629;52.532;13.352;2022-07-23T07:36:26;18.40;99.90
41262;DHT22;29629;52.532;13.352;2022-07-23T07:38:53;18.40;99.90
41262;DHT22;29629;52.532;13.352;2022-07-23T07:41:21;18.50;99.90
41262;DHT22;29629;52.532;13.352;2022-07-23T07:43:49;18.60;99.90
41262;DHT22;29629;52.532;13.352;2022-07-23T07:46:16;18.70;99.90
41262;DHT22;29629;52.532;13.352;2022-07-23T07:48:43;18.70;99.90
41262;DHT22;29629;52.532;13.352;2022-07-23T07:51:10;18.70;99.90
41262;DHT22;29629;52.532;13.352;2022-07-23T07:53:36;18.80;99.90
41262;DHT22;29629;52.532;13.352;2022-07-23T07:56:04;18.80;99.90
41262;DHT22;29629;52.532;13.352;2022-07-23T07:58:32;18.80;99.90
41262;DHT22;29629;52.532;13.352;2022-07-23T08:00:59;19.00;99.90
41262;DHT22;29629;52.532;13.352;2022-07-23T08:03:26;19.20;99.90
41262;DHT22;29629;52.532;13.352;2022-07-23T08:05:53;19.40;99.90
41262;DHT22;29629;52.532;13.352;2022-07-23T08:08:19;19.40;99.90
41262;DHT22;29629;52.532;13.352;2022-07-23T08:10:46;19.70;99.90
41262;DHT22;29629;52.532;13.352;2022-07-23T08:13:14;20.10;99.90
41262;DHT22;29629;52.532;13.352;2022-07-23T08:15:43;20.40;99.90
41262;DHT22;29629;52.532;13.352;2022-07-23T08:18:10;20.70;99.90
41262;DHT22;29629;52.532;13.352;2022-07-23T08:20:37;20.90;99.90
41262;DHT22;29629;52.532;13.352;2022-07-23T08:23:06;21.20;99.90
41262;DHT22;29629;52.532;13.352;2022-07-23T08:25:35;21.30;99.90
41262;DHT22;29629;52.532;13.352;2022-07-23T08:28:04;21.30;99.90
41262;DHT22;29629;52.532;13.352;2022-07-23T08:30:31;21.80;99.90
41262;DHT22;29629;52.532;13.352;2022-07-23T08:33:01;22.10;99.90
41262;DHT22;29629;52.532;13.352;2022-07-23T08:35:30;22.20;99.90
41262;DHT22;29629;52.532;13.352;2022-07-23T08:37:58;22.50;99.90
41262;DHT22;29629;52.532;13.352;2022-07-23T08:40:26;22.50;99.90
41262;DHT22;29629;52.532;13.352;2022-07-23T08:42:54;22.60;99.90
41262;DHT22;29629;52.532;13.352;2022-07-23T08:45:23;22.60;99.90
41262;DHT22;29629;52.532;13.352;2022-07-23T08:47:51;22.70;99.90
41262;DHT22;29629;52.532;13.352;2022-07-23T08:50:19;22.70;99.90
41262;DHT22;29629;52.532;13.352;2022-07-23T08:52:47;22.90;99.90
41262;DHT22;29629;52.532;13.352;2022-07-23T08:55:16;22.80;99.90
41262;DHT22;29629;52.532;13.352;2022-07-23T08:57:43;22.90;99.90
41262;DHT22;29629;52.532;13.352;2022-07-23T09:00:11;23.00;99.90
41262;DHT22;29629;52.532;13.352;2022-07-23T09:02:39;23.20;99.90
41262;DHT22;29629;52.532;13.352;2022-07-23T09:05:07;23.30;99.90
41262;DHT22;29629;52.532;13.352;2022-07-23T09:07:36;23.70;99.90
41262;DHT22;29629;52.532;13.352;2022-07-23T09:10:08;23.50;99.90
41262;DHT22;29629;52.532;13.352;2022-07-23T09:12:36;23.80;99.90
41262;DHT22;29629;52.532;13.352;2022-07-23T09:15:05;24.10;99.90
41262;DHT22;29629;52.532;13.352;2022-07-23T09:17:37;24.40;99.90
41262;DHT22;29629;52.532;13.352;2022-07-23T09:20:09;24.60;99.90
41262;DHT22;29629;52.532;13.352;2022-07-23T09:22:38;24.80;99.90
41262;DHT22;29629;52.532;13.352;2022-07-23T09:25:10;25.20;99.90
41262;DHT22;29629;52.532;13.352;2022-07-23T09:27:49;25.80;99.90
41262;DHT22;29629;52.532;13.352;2022-07-23T09:30:18;26.00;99.90
41262;DHT22;29629;52.532;13.352;2022-07-23T09:33:03;26.60;99.90
41262;DHT22;29629;52.532;13.352;2022-07-23T09:35:44;27.40;99.90
41262;DHT22;29629;52.532;13.352;2022-07-23T09:38:12;27.50;99.90
41262;DHT22;29629;52.532;13.352;2022-07-23T09:40:39;27.20;99.90
41262;DHT22;29629;52.532;13.352;2022-07-23T09:43:06;28.00;99.90
41262;DHT22;29629;52.532;13.352;2022-07-23T09:45:33;28.60;99.90
41262;DHT22;29629;52.532;13.352;2022-07-23T09:48:14;28.50;99.90
41262;DHT22;29629;52.532;13.352;2022-07-23T09:50:43;28.80;99.90
41262;DHT22;29629;52.532;13.352;2022-07-23T09:53:24;29.50;99.90
41262;DHT22;29629;52.532;13.352;2022-07-23T09:55:51;29.80;99.90
41262;DHT22;29629;52.532;13.352;2022-07-23T09:58:21;30.20;99.90
41262;DHT22;29629;52.532;13.352;2022-07-23T10:00:49;31.30;99.90
41262;DHT22;29629;52.532;13.352;2022-07-23T10:03:17;31.80;99.90
41262;DHT22;29629;52.532;13.352;2022-07-23T10:05:46;31.70;99.90
41262;DHT22;29629;52.532;13.352;2022-07-23T10:08:17;32.20;99.90
41262;DHT22;29629;52.532;13.352;2022-07-23T10:10:46;31.10;99.90
41262;DHT22;29629;52.532;13.352;2022-07-23T10:13:14;30.40;99.90
41262;DHT22;29629;52.532;13.352;2022-07-23T10:16:07;29.30;99.90
41262;DHT22;29629;52.532;13.352;2022-07-23T10:18:34;28.50;99.90
41262;DHT22;29629;52.532;13.352;2022-07-23T10:21:05;28.20;99.90
41262;DHT22;29629;52.532;13.352;2022-07-23T10:23:40;28.00;99.90
41262;DHT22;29629;52.532;13.352;2022-07-23T10:26:11;29.00;99.90
41262;DHT22;29629;52.532;13.352;2022-07-23T10:29:02;29.00;99.90
41262;DHT22;29629;52.532;13.352;2022-07-23T10:31:46;28.60;99.90
41262;DHT22;29629;52.532;13.352;2022-07-23T10:34:34;27.80;99.90
41262;DHT22;29629;52.532;13.352;2022-07-23T10:37:11;27.20;99.90
41262;DHT22;29629;52.532;13.352;2022-07-23T10:39:41;26.90;99.90
41262;DHT22;29629;52.532;13.352;2022-07-23T10:42:09;27.20;99.90
41262;DHT22;29629;52.532;13.352;2022-07-23T10:44:40;27.90;99.90
41262;DHT22;29629;52.532;13.352;2022-07-23T10:47:09;29.70;99.90
41262;DHT22;29629;52.532;13.352;2022-07-23T10:50:18;30.80;99.90
41262;DHT22;29629;52.532;13.352;2022-07-23T10:53:07;31.50;99.90
41262;DHT22;29629;52.532;13.352;2022-07-23T10:55:44;32.50;99.90
41262;DHT22;29629;52.532;13.352;2022-07-23T10:58:18;32.20;99.90
41262;DHT22;29629;52.532;13.352;2022-07-23T11:00:45;33.20;99.90
41262;DHT22;29629;52.532;13.352;2022-07-23T11:03:32;32.90;99.90
41262;DHT22;29629;52.532;13.352;2022-07-23T11:06:02;31.70;99.90
41262;DHT22;29629;52.532;13.352;2022-07-23T11:08:29;31.40;99.90
41262;DHT22;29629;52.532;13.352;2022-07-23T11:11:09;32.30;99.90
41262;DHT22;29629;52.532;13.352;2022-07-23T11:13:47;33.00;99.90
41262;DHT22;29629;52.532;13.352;2022-07-23T11:16:22;33.50;99.90
41262;DHT22;29629;52.532;13.352;2022-07-23T11:21:50;33.70;99.90
41262;DHT22;29629;52.532;13.352;2022-07-23T11:24:20;34.00;99.90
41262;DHT22;29629;52.532;13.352;2022-07-23T11:26:54;34.40;99.90
41262;DHT22;29629;52.532;13.352;2022-07-23T11:29:47;35.20;99.90
41262;DHT22;29629;52.532;13.352;2022-07-23T11:32:39;34.40;99.90
41262;DHT22;29629;52.532;13.352;2022-07-23T11:35:23;36.00;99.90
41262;DHT22;29629;52.532;13.352;2022-07-23T11:37:53;36.20;99.80
41262;DHT22;29629;52.532;13.352;2022-07-23T11:40:24;36.30;99.90
41262;DHT22;29629;52.532;13.352;2022-07-23T11:42:56;34.90;99.80
41262;DHT22;29629;52.532;13.352;2022-07-23T11:45:24;32.40;98.60
41262;DHT22;29629;52.532;13.352;2022-07-23T11:47:51;30.90;99.90
41262;DHT22;29629;52.532;13.352;2022-07-23T11:50:18;30.20;99.90
41262;DHT22;29629;52.532;13.352;2022-07-23T11:52:45;29.70;99.90
41262;DHT22;29629;52.532;13.352;2022-07-23T11:55:11;29.20;99.90
41262;DHT22;29629;52.532;13.352;2022-07-23T11:57:41;28.40;99.90
41262;DHT22;29629;52.532;13.352;2022-07-23T12:00:12;28.40;99.90
41262;DHT22;29629;52.532;13.352;2022-07-23T12:02:43;28.40;99.90
41262;DHT22;29629;52.532;13.352;2022-07-23T12:05:15;29.00;99.90
41262;DHT22;29629;52.532;13.352;2022-07-23T12:07:44;28.90;99.90
41262;DHT22;29629;52.532;13.352;2022-07-23T12:10:16;28.60;99.90
41262;DHT22;29629;52.532;13.352;2022-07-23T12:12:45;28.20;99.90
41262;DHT22;29629;52.532;13.352;2022-07-23T12:15:14;27.70;99.90
41262;DHT22;29629;52.532;13.352;2022-07-23T12:17:46;27.50;99.90
41262;DHT22;29629;52.532;13.352;2022-07-23T12:20:16;27.70;99.90
41262;DHT22;29629;52.532;13.352;2022-07-23T12:22:45;29.00;99.90
41262;DHT22;29629;52.532;13.352;2022-07-23T12:25:13;28.10;99.90
41262;DHT22;29629;52.532;13.352;2022-07-23T12:27:40;28.20;99.90
41262;DHT22;29629;52.532;13.352;2022-07-23T12:30:23;28.30;99.90
41262;DHT22;29629;52.532;13.352;2022-07-23T12:32:52;27.90;99.90
41262;DHT22;29629;52.532;13.352;2022-07-23T12:35:19;28.10;99.90
41262;DHT22;29629;52.532;13.352;2022-07-23T12:37:48;28.10;99.90
41262;DHT22;29629;52.532;13.352;2022-07-23T12:40:23;28.10;99.90
41262;DHT22;29629;52.532;13.352;2022-07-23T12:42:52;28.00;99.90
41262;DHT22;29629;52.532;13.352;2022-07-23T12:45:20;28.80;99.90
41262;DHT22;29629;52.532;13.352;2022-07-23T12:48:04;28.90;99.90
41262;DHT22;29629;52.532;13.352;2022-07-23T12:50:42;28.60;99.90
41262;DHT22;29629;52.532;13.352;2022-07-23T12:53:14;28.50;99.90
41262;DHT22;29629;52.532;13.352;2022-07-23T12:55:42;28.80;99.90
41262;DHT22;29629;52.532;13.352;2022-07-23T12:58:12;29.20;99.90
41262;DHT22;29629;52.532;13.352;2022-07-23T13:03:35;29.20;99.90
41262;DHT22;29629;52.532;13.352;2022-07-23T13:06:04;28.70;99.90
41262;DHT22;29629;52.532;13.352;2022-07-23T13:08:32;28.30;99.90
41262;DHT22;29629;52.532;13.352;2022-07-23T13:10:59;28.20;99.90
41262;DHT22;29629;52.532;13.352;2022-07-23T13:13:27;28.00;99.90
41262;DHT22;29629;52.532;13.352;2022-07-23T13:15:56;28.70;99.90
41262;DHT22;29629;52.532;13.352;2022-07-23T13:18:23;29.40;99.90
41262;DHT22;29629;52.532;13.352;2022-07-23T13:20:51;30.10;99.90
41262;DHT22;29629;52.532;13.352;2022-07-23T13:23:18;30.20;99.90
41262;DHT22;29629;52.532;13.352;2022-07-23T13:25:45;29.90;99.90
41262;DHT22;29629;52.532;13.352;2022-07-23T13:28:13;29.60;99.90
41262;DHT22;29629;52.532;13.352;2022-07-23T13:30:40;29.70;99.90
41262;DHT22;29629;52.532;13.352;2022-07-23T13:33:08;29.50;99.90
41262;DHT22;29629;52.532;13.352;2022-07-23T13:35:36;29.50;99.90
41262;DHT22;29629;52.532;13.352;2022-07-23T13:38:03;28.70;99.90
41262;DHT22;29629;52.532;13.352;2022-07-23T13:40:33;28.10;99.90
41262;DHT22;29629;52.532;13.352;2022-07-23T13:43:00;27.10;99.90
41262;DHT22;29629;52.532;13.352;2022-07-23T13:45:26;26.90;99.90
41262;DHT22;29629;52.532;13.352;2022-07-23T13:47:53;27.20;99.90
41262;DHT22;29629;52.532;13.352;2022-07-23T13:50:22;26.80;99.90
41262;DHT22;29629;52.532;13.352;2022-07-23T13:52:49;26.30;99.90
41262;DHT22;29629;52.532;13.352;2022-07-23T13:55:16;26.10;99.90
41262;DHT22;29629;52.532;13.352;2022-07-23T13:57:43;26.30;99.90
41262;DHT22;29629;52.532;13.352;2022-07-23T14:00:13;26.50;99.90
41262;DHT22;29629;52.532;13.352;2022-07-23T14:02:40;26.70;99.90
41262;DHT22;29629;52.532;13.352;2022-07-23T14:05:09;27.00;99.90
41262;DHT22;29629;52.532;13.352;2022-07-23T14:07:38;27.00;99.90
41262;DHT22;29629;52.532;13.352;2022-07-23T14:10:06;27.20;99.90
41262;DHT22;29629;52.532;13.352;2022-07-23T14:12:34;27.20;99.90
41262;DHT22;29629;52.532;13.352;2022-07-23T14:15:01;27.30;99.90
41262;DHT22;29629;52.532;13.352;2022-07-23T14:17:27;27.00;99.90
41262;DHT22;29629;52.532;13.352;2022-07-23T14:19:54;27.20;99.90
41262;DHT22;29629;52.532;13.352;2022-07-23T14:22:21;27.10;99.90
41262;DHT22;29629;52.532;13.352;2022-07-23T14:24:50;27.10;99.90
41262;DHT22;29629;52.532;13.352;2022-07-23T14:27:16;26.90;99.90
41262;DHT22;29629;52.532;13.352;2022-07-23T14:29:43;26.70;99.90
41262;DHT22;29629;52.532;13.352;2022-07-23T14:32:10;26.70;99.90
41262;DHT22;29629;52.532;13.352;2022-07-23T14:34:37;26.70;99.90
41262;DHT22;29629;52.532;13.352;2022-07-23T14:37:04;26.40;99.90
41262;DHT22;29629;52.532;13.352;2022-07-23T14:39:31;26.30;99.90
41262;DHT22;29629;52.532;13.352;2022-07-23T14:41:59;26.30;99.90
41262;DHT22;29629;52.532;13.352;2022-07-23T14:44:26;26.30;99.90
41262;DHT22;29629;52.532;13.352;2022-07-23T14:46:53;26.00;99.90
41262;DHT22;29629;52.532;13.352;2022-07-23T14:49:20;26.00;99.90
41262;DHT22;29629;52.532;13.352;2022-07-23T14:51:47;26.00;99.90
41262;DHT22;29629;52.532;13.352;2022-07-23T14:54:14;26.10;99.90
41262;DHT22;29629;52.532;13.352;2022-07-23T14:56:41;26.20;99.90
41262;DHT22;29629;52.532;13.352;2022-07-23T14:59:13;26.30;99.90
41262;DHT22;29629;52.532;13.352;2022-07-23T15:01:45;26.20;99.90
41262;DHT22;29629;52.532;13.352;2022-07-23T15:04:15;26.10;99.90
41262;DHT22;29629;52.532;13.352;2022-07-23T15:06:42;26.00;99.90
41262;DHT22;29629;52.532;13.352;2022-07-23T15:09:10;25.90;99.90
41262;DHT22;29629;52.532;13.352;2022-07-23T15:11:37;25.80;99.90
41262;DHT22;29629;52.532;13.352;2022-07-23T15:14:04;25.80;99.90
41262;DHT22;29629;52.532;13.352;2022-07-23T15:16:32;25.80;99.90
41262;DHT22;29629;52.532;13.352;2022-07-23T15:18:59;25.80;99.90
41262;DHT22;29629;52.532;13.352;2022-07-23T15:21:27;25.90;99.90
41262;DHT22;29629;52.532;13.352;2022-07-23T15:23:55;25.90;99.90
41262;DHT22;29629;52.532;13.352;2022-07-23T15:26:24;25.80;99.90
41262;DHT22;29629;52.532;13.352;2022-07-23T15:28:50;25.60;99.90
41262;DHT22;29629;52.532;13.352;2022-07-23T15:31:17;25.50;99.90
41262;DHT22;29629;52.532;13.352;2022-07-23T15:33:45;25.40;99.90